Airfield :
LOGIN :

Register | Disclaimer

   EN    FR    IT 

 










Legend :    VFR   Marginal VFR   IFR   Intensive IFR   Very Intensive IFR
Visi :
Ceiling :
>= 8 km
>= 3000ft
5 to 8 km
1000 to 3000 ft
1500m to 5 km
500 to 1000 ft
800 to 1500m
200 to 500 ft
< 800m
< 200 ft
Symbols :   Thunderstorms  Fog  Heavy snow  Heavy precipitations  Wind > 20 kt
SIGMETs :     Misc.  Thunderstorms  Icing  Turbulence  Mountain Waves  Volcanic Ashes






- Airport Elevation : 297 ft


EGVP - Middle Wallop

CURRENT METAR :
  • 181020Z 28004KT 9999 FEW017 BKN037 20/15 Q1015 TEMPO SCT020 RMK BLU TEMPO WHT

EXPIRED METARs :
  • 180950Z 28004KT 9999 BKN016 BKN039 20/16 Q1015 BECMG BKN025 RMK WHT BECMG BLU
  • 180920Z 29005KT 9000 HZ SCT014 BKN035 19/16 Q1015 BECMG SCT021 RMK GRN BECMG WHT
  • 180850Z 29004KT 8000 HZ SCT009 SCT018 BKN035 18/16 Q1015 BECMG BKN021 RMK GRN BECMG WHT
  • 180820Z 29004KT 8000 HZ SCT009 BKN036 18/16 Q1015 BECMG BKN021 RMK GRN BECMG WHT
  • 180750Z 30002KT 7000 HZ FEW006 BKN008 BKN035 18/16 Q1015 BECMG 9999 NSW BKN016 RMK GRN BECMG WHT

TAF TAF EGVP
Valid from the 18 at 09:00 until the 18 at 18:00 UTC


180751Z 1809/1818 27004KT 9999 BKN009
BECMG 1809/1812 SCT025
BECMG 1816/1818 SCT014
PROB30
TEMPO 1816/1818 5000 -RADZ
ATIS : +44 1980 674 142



MET'MAP, your aeronautical weather chart ! - Copyright ORBIFLY December 2007 - Disclaimer

ORBIFLY MET'MAP TEAM :

Programming & Development : Alexandra Zaïnal
Original concept : Baudouin d'Aumeries
Technical & hardware support : Manuel Goepfert
Assistance : Marc-Olivier Méhu




SOURCES & CREDITS :

   NOAA